Open Full Screen Window  High Contrast Mode
July 24, 2016 6:34 AM EDT
Present Weather: Light Rain
Weather Information
Wind Direction
  ---
Wind Speed
  00 kt (0 mph)
Wind Gust
  00 kt (0 mph)
Altimeter
29.93 in
Visibility
10 SM
Temperature
23° C
73° F
Dewpoint
18° C
64° F
Humidity
74%
1hr Rain Fall
00.00 in.
24hr Rain Fall
00.00 in.
Sky Condition
Overcast @ 11,000 ft
Broken @ 9,000 ft
Scattered @ 8,000 ft
VFR

METAR KIKW 241034Z AUTO 00000KT 10SM -RA SCT080 BKN090 OVC110 23/18 A2993 RMK AO2 T02270182

*Background is not an actual portrayal of the airport.